createdAt,value
2023-04-24T00:01:27.974Z,99.90
2023-04-24T00:03:55.280Z,99.90
2023-04-24T00:06:24.719Z,99.90
2023-04-24T00:08:51.640Z,99.90
2023-04-24T00:11:18.605Z,99.90
2023-04-24T00:13:45.683Z,99.90
2023-04-24T00:16:12.643Z,99.90
2023-04-24T00:18:39.622Z,99.90
2023-04-24T00:21:08.476Z,99.90
2023-04-24T00:23:35.438Z,99.90
2023-04-24T00:26:03.249Z,99.90
2023-04-24T00:28:30.294Z,99.90
2023-04-24T00:30:57.293Z,99.90
2023-04-24T00:33:24.273Z,99.90
2023-04-24T00:35:51.207Z,99.90
2023-04-24T00:38:18.148Z,99.90
2023-04-24T00:40:45.276Z,99.90
2023-04-24T00:43:13.263Z,99.90
2023-04-24T00:45:40.505Z,99.90
2023-04-24T00:48:08.688Z,99.90
2023-04-24T00:50:37.957Z,99.90
2023-04-24T00:53:05.053Z,99.90
2023-04-24T00:55:33.341Z,99.90
2023-04-24T00:58:00.833Z,99.90
2023-04-24T01:00:28.365Z,99.90
2023-04-24T01:02:56.722Z,99.90
2023-04-24T01:05:23.939Z,99.90
2023-04-24T01:07:51.128Z,99.90
2023-04-24T01:10:19.150Z,99.90
2023-04-24T01:12:46.718Z,99.90
2023-04-24T01:15:13.753Z,99.90
2023-04-24T01:17:40.851Z,99.90
2023-04-24T01:20:08.432Z,99.90
2023-04-24T01:22:36.107Z,99.90
2023-04-24T01:25:04.573Z,99.90
2023-04-24T01:27:31.824Z,99.90
2023-04-24T01:29:59.042Z,99.90
2023-04-24T01:32:26.864Z,99.90
2023-04-24T01:34:54.104Z,99.90
2023-04-24T01:37:21.906Z,99.90
2023-04-24T01:39:48.991Z,99.90
2023-04-24T01:42:16.212Z,99.90
2023-04-24T01:44:43.367Z,99.90
2023-04-24T01:47:10.429Z,99.90
2023-04-24T01:49:39.743Z,99.90
2023-04-24T01:52:06.784Z,99.90
2023-04-24T01:54:33.790Z,99.90
2023-04-24T01:57:02.201Z,99.90
2023-04-24T01:59:29.958Z,99.90
2023-04-24T02:01:56.897Z,99.90
2023-04-24T02:04:23.969Z,99.90
2023-04-24T02:06:51.136Z,99.90
2023-04-24T02:09:18.095Z,99.90
2023-04-24T02:11:45.081Z,99.90
2023-04-24T02:14:12.022Z,99.90
2023-04-24T02:16:39.085Z,99.90
2023-04-24T02:19:06.246Z,99.90
2023-04-24T02:21:34.014Z,99.90
2023-04-24T02:24:01.176Z,99.90
2023-04-24T02:26:28.176Z,99.90
2023-04-24T02:28:55.116Z,99.90
2023-04-24T02:31:22.146Z,99.90
2023-04-24T02:33:49.259Z,99.90
2023-04-24T02:36:16.259Z,99.90
2023-04-24T02:38:43.192Z,99.90
2023-04-24T02:41:10.168Z,99.90
2023-04-24T02:43:37.096Z,99.90
2023-04-24T02:46:04.155Z,99.90
2023-04-24T02:48:31.265Z,99.90
2023-04-24T02:50:58.791Z,99.90
2023-04-24T02:53:25.885Z,99.90
2023-04-24T02:55:52.886Z,99.90
2023-04-24T02:58:21.158Z,99.90
2023-04-24T03:00:49.149Z,99.90
2023-04-24T03:03:16.711Z,99.90
2023-04-24T03:05:43.886Z,99.90
2023-04-24T03:08:11.907Z,99.90
2023-04-24T03:10:38.902Z,99.90
2023-04-24T03:13:05.954Z,99.90
2023-04-24T03:15:33.109Z,99.90
2023-04-24T03:18:01.729Z,99.90
2023-04-24T03:20:28.795Z,99.90
2023-04-24T03:22:55.829Z,99.90
2023-04-24T03:25:23.021Z,99.90
2023-04-24T03:27:50.181Z,99.90
2023-04-24T03:30:17.283Z,99.90
2023-04-24T03:32:44.812Z,99.90
2023-04-24T03:35:12.157Z,99.90
2023-04-24T03:37:39.088Z,99.90
2023-04-24T03:40:07.288Z,99.90
2023-04-24T03:42:34.262Z,99.90
2023-04-24T03:45:01.227Z,99.90
2023-04-24T03:47:28.254Z,99.90
2023-04-24T03:49:56.972Z,99.90
2023-04-24T03:52:24.051Z,99.90
2023-04-24T03:54:50.977Z,99.90
2023-04-24T03:57:21.041Z,99.90
2023-04-24T03:59:48.024Z,99.90
2023-04-24T04:02:15.037Z,99.90
2023-04-24T04:04:42.233Z,99.90
2023-04-24T04:07:09.718Z,99.90
2023-04-24T04:09:36.663Z,99.90
2023-04-24T04:12:04.033Z,99.90
2023-04-24T04:14:30.986Z,99.90
2023-04-24T04:16:58.045Z,99.90
2023-04-24T04:19:25.000Z,99.90
2023-04-24T04:21:54.176Z,99.60
2023-04-24T04:24:25.210Z,98.70
2023-04-24T04:26:53.352Z,97.40
2023-04-24T04:29:20.354Z,97.50
2023-04-24T04:31:47.413Z,96.40
2023-04-24T04:34:15.300Z,96.30
2023-04-24T04:36:42.845Z,95.40
2023-04-24T04:39:09.826Z,95.00
2023-04-24T04:41:36.853Z,94.40
2023-04-24T04:44:05.694Z,93.50
2023-04-24T04:46:38.329Z,92.60
2023-04-24T04:49:05.818Z,93.60
2023-04-24T04:51:33.033Z,92.40
2023-04-24T04:53:59.986Z,92.00
2023-04-24T04:56:27.913Z,91.50
2023-04-24T04:58:55.096Z,91.40
2023-04-24T05:01:24.290Z,91.40
2023-04-24T05:03:51.621Z,89.60
2023-04-24T05:06:18.704Z,89.70
2023-04-24T05:08:45.744Z,85.90
2023-04-24T05:11:12.728Z,83.20
2023-04-24T05:13:40.980Z,83.60
2023-04-24T05:16:08.479Z,83.70
2023-04-24T05:18:35.639Z,81.80
2023-04-24T05:21:02.650Z,81.80
2023-04-24T05:23:29.673Z,79.60
2023-04-24T05:25:56.655Z,78.70
2023-04-24T05:28:23.662Z,77.40
2023-04-24T05:30:50.928Z,78.20
2023-04-24T05:33:24.939Z,76.50
2023-04-24T05:35:52.057Z,75.50
2023-04-24T05:38:20.666Z,75.20
2023-04-24T05:40:47.657Z,73.70
2023-04-24T05:43:14.958Z,73.90
2023-04-24T05:45:41.936Z,72.10
2023-04-24T05:48:08.911Z,70.20
2023-04-24T05:50:37.152Z,73.00
2023-04-24T05:53:05.126Z,74.00
2023-04-24T05:55:32.797Z,72.60
2023-04-24T05:58:00.072Z,73.80
2023-04-24T06:00:28.028Z,75.10
2023-04-24T06:02:55.508Z,74.10
2023-04-24T06:05:23.288Z,72.80
2023-04-24T06:07:50.325Z,72.60
2023-04-24T06:10:17.364Z,73.70
2023-04-24T06:12:44.365Z,71.60
2023-04-24T06:15:11.552Z,69.70
2023-04-24T06:17:38.648Z,73.20
2023-04-24T06:20:07.482Z,74.20
2023-04-24T06:22:34.713Z,73.80
2023-04-24T06:25:04.211Z,72.60
2023-04-24T06:27:31.509Z,74.20
2023-04-24T06:29:58.506Z,75.10
2023-04-24T06:32:26.561Z,74.60
2023-04-24T06:34:54.070Z,74.40
2023-04-24T06:37:24.422Z,77.20
2023-04-24T06:39:51.460Z,71.90
2023-04-24T06:42:20.598Z,71.70
2023-04-24T06:44:47.846Z,73.00
2023-04-24T06:47:15.009Z,72.10
2023-04-24T06:49:42.229Z,71.80
2023-04-24T06:52:12.409Z,73.30
2023-04-24T06:54:39.543Z,71.40
2023-04-24T06:57:07.537Z,70.40
2023-04-24T06:59:34.610Z,72.00
2023-04-24T07:02:01.687Z,71.80
2023-04-24T07:04:29.549Z,68.70
2023-04-24T07:06:57.930Z,67.80
2023-04-24T07:09:28.541Z,70.40
2023-04-24T07:11:57.658Z,73.50
2023-04-24T07:14:24.797Z,72.00
2023-04-24T07:16:52.091Z,73.80
2023-04-24T07:19:19.104Z,75.40
2023-04-24T07:21:46.588Z,75.90
2023-04-24T07:24:14.066Z,78.60
2023-04-24T07:26:41.453Z,79.00
2023-04-24T07:29:09.238Z,78.80
2023-04-24T07:31:36.487Z,78.30
2023-04-24T07:34:03.555Z,76.50
2023-04-24T07:36:30.625Z,78.00
2023-04-24T07:38:58.308Z,76.50
2023-04-24T07:41:25.596Z,75.80
2023-04-24T07:43:53.692Z,78.90
2023-04-24T07:46:21.583Z,78.20
2023-04-24T07:48:58.568Z,77.20
2023-04-24T07:51:32.472Z,77.50
2023-04-24T07:53:59.483Z,77.10
2023-04-24T07:56:27.981Z,77.70
2023-04-24T07:58:55.148Z,80.00
2023-04-24T08:01:22.202Z,80.60
2023-04-24T08:03:49.523Z,80.40
2023-04-24T08:06:16.788Z,80.10
2023-04-24T08:08:44.017Z,80.50
2023-04-24T08:11:11.095Z,78.30
2023-04-24T08:13:38.156Z,78.40
2023-04-24T08:16:05.282Z,76.90
2023-04-24T08:18:32.387Z,80.30
2023-04-24T08:21:02.643Z,81.00
2023-04-24T08:23:30.938Z,82.90
2023-04-24T08:25:58.930Z,83.80
2023-04-24T08:28:26.481Z,84.00
2023-04-24T08:30:55.922Z,81.80
2023-04-24T08:33:25.715Z,82.40
2023-04-24T08:35:53.693Z,82.20
2023-04-24T08:38:20.841Z,82.90
2023-04-24T08:40:50.690Z,81.40
2023-04-24T08:43:18.160Z,78.60
2023-04-24T08:45:45.610Z,81.70
2023-04-24T08:48:23.388Z,80.00
2023-04-24T08:50:55.260Z,80.00
2023-04-24T08:53:22.328Z,80.40
2023-04-24T08:55:50.329Z,81.40
2023-04-24T08:58:19.481Z,81.50
2023-04-24T09:00:48.791Z,80.00
2023-04-24T09:03:18.297Z,77.60
2023-04-24T09:05:48.751Z,78.50
2023-04-24T09:08:17.297Z,81.80
2023-04-24T09:10:44.461Z,79.60
2023-04-24T09:13:12.417Z,79.40
2023-04-24T09:15:40.077Z,80.10
2023-04-24T09:18:07.281Z,81.00
2023-04-24T09:20:37.302Z,78.50
2023-04-24T09:23:04.388Z,79.40
2023-04-24T09:25:37.186Z,78.40
2023-04-24T09:28:07.699Z,80.80
2023-04-24T09:30:34.720Z,81.30
2023-04-24T09:33:13.751Z,78.30
2023-04-24T09:35:50.156Z,77.80
2023-04-24T09:38:17.324Z,78.80
2023-04-24T09:40:44.564Z,75.30
2023-04-24T09:43:14.759Z,78.30
2023-04-24T09:48:12.558Z,74.80
2023-04-24T09:50:39.596Z,78.10
2023-04-24T09:53:11.852Z,74.80
2023-04-24T09:55:47.333Z,77.00
2023-04-24T09:58:14.388Z,76.70
2023-04-24T10:00:41.424Z,75.30
2023-04-24T10:03:09.485Z,73.60
2023-04-24T10:05:38.234Z,76.50
2023-04-24T10:08:09.660Z,76.40
2023-04-24T10:10:44.103Z,76.80
2023-04-24T10:13:12.481Z,75.90
2023-04-24T10:15:41.345Z,75.70
2023-04-24T10:18:09.628Z,78.10
2023-04-24T10:20:38.293Z,75.80
2023-04-24T10:23:05.840Z,75.20
2023-04-24T10:25:35.764Z,75.70
2023-04-24T10:28:03.535Z,76.20
2023-04-24T10:30:38.803Z,75.20
2023-04-24T10:33:08.943Z,72.70
2023-04-24T10:35:41.808Z,73.40
2023-04-24T10:38:13.202Z,71.90
2023-04-24T10:40:40.464Z,72.90
2023-04-24T10:43:12.500Z,72.10
2023-04-24T10:45:40.381Z,69.50
2023-04-24T10:48:12.429Z,73.90
2023-04-24T10:50:45.628Z,72.00
2023-04-24T10:53:20.468Z,71.20
2023-04-24T10:56:04.162Z,72.50
2023-04-24T10:59:00.515Z,71.40
2023-04-24T11:01:28.714Z,72.90
2023-04-24T11:04:04.317Z,72.50
2023-04-24T11:06:38.634Z,70.70
2023-04-24T11:09:11.073Z,70.80
2023-04-24T11:11:41.208Z,67.40
2023-04-24T11:14:09.576Z,69.70
2023-04-24T11:16:41.114Z,71.40
2023-04-24T11:19:10.051Z,71.40
2023-04-24T11:21:43.126Z,70.10
2023-04-24T11:24:39.134Z,69.20
2023-04-24T11:27:06.164Z,69.80
2023-04-24T11:29:45.062Z,68.50
2023-04-24T11:32:25.733Z,69.70
2023-04-24T11:35:08.113Z,70.20
2023-04-24T11:37:40.539Z,69.20
2023-04-24T11:40:10.215Z,68.80
2023-04-24T11:42:42.012Z,69.90
2023-04-24T11:45:11.579Z,70.60
2023-04-24T11:47:39.501Z,72.50
2023-04-24T11:50:08.980Z,72.70
2023-04-24T11:52:41.063Z,73.40
2023-04-24T11:55:16.097Z,72.50
2023-04-24T11:57:55.102Z,71.80
2023-04-24T12:00:25.082Z,73.50
2023-04-24T12:02:52.827Z,72.70
2023-04-24T12:05:28.077Z,73.90
2023-04-24T12:07:55.535Z,74.20
2023-04-24T12:10:29.900Z,73.10
2023-04-24T12:12:58.614Z,74.70
2023-04-24T12:15:26.324Z,73.80
2023-04-24T12:17:54.764Z,74.70
2023-04-24T12:20:34.321Z,75.50
2023-04-24T12:23:02.535Z,75.30
2023-04-24T12:25:31.137Z,75.40
2023-04-24T12:28:07.462Z,78.00
2023-04-24T12:30:49.465Z,77.70
2023-04-24T12:33:20.996Z,76.00
2023-04-24T12:35:49.838Z,75.30
2023-04-24T12:38:18.977Z,75.00
2023-04-24T12:40:45.991Z,75.80
2023-04-24T12:43:16.889Z,74.70
2023-04-24T12:45:43.994Z,73.60
2023-04-24T12:48:11.158Z,73.90
2023-04-24T12:50:39.790Z,72.10
2023-04-24T12:53:09.692Z,72.10
2023-04-24T12:55:38.458Z,73.10
2023-04-24T12:58:05.367Z,74.70
2023-04-24T13:00:33.011Z,74.50
2023-04-24T13:03:00.296Z,72.80
2023-04-24T13:05:27.550Z,73.90
2023-04-24T13:07:54.588Z,74.50
2023-04-24T13:10:21.604Z,76.50
2023-04-24T13:12:48.637Z,75.70
2023-04-24T13:15:15.700Z,75.50
2023-04-24T13:17:42.774Z,75.00
2023-04-24T13:20:09.978Z,76.40
2023-04-24T13:22:38.038Z,75.00
2023-04-24T13:25:07.218Z,74.90
2023-04-24T13:27:34.617Z,75.60
2023-04-24T13:30:02.303Z,76.40
2023-04-24T13:32:30.095Z,76.50
2023-04-24T13:34:58.003Z,74.20
2023-04-24T13:37:25.001Z,72.80
2023-04-24T13:39:52.510Z,72.30
2023-04-24T13:42:21.109Z,72.30
2023-04-24T13:44:48.132Z,72.10
2023-04-24T13:47:15.140Z,71.10
2023-04-24T13:49:42.290Z,72.40
2023-04-24T13:52:09.311Z,71.70
2023-04-24T13:54:36.305Z,70.00
2023-04-24T13:57:04.431Z,71.20
2023-04-24T13:59:31.891Z,73.00
2023-04-24T14:01:58.937Z,74.20
2023-04-24T14:04:26.345Z,72.20
2023-04-24T14:06:53.691Z,73.80
2023-04-24T14:09:20.893Z,73.20
2023-04-24T14:11:48.010Z,74.90
2023-04-24T14:14:14.995Z,76.30
2023-04-24T14:16:42.049Z,77.00
2023-04-24T14:19:09.030Z,77.30
2023-04-24T14:21:36.742Z,78.40
2023-04-24T14:24:03.993Z,79.60
2023-04-24T14:26:31.032Z,80.00
2023-04-24T14:29:11.541Z,80.00
2023-04-24T14:31:41.736Z,80.40
2023-04-24T14:34:08.731Z,80.40
2023-04-24T14:36:36.326Z,80.80
2023-04-24T14:39:07.867Z,81.30
2023-04-24T14:41:38.586Z,81.30
2023-04-24T14:44:06.030Z,79.10
2023-04-24T14:46:33.466Z,78.10
2023-04-24T14:49:00.689Z,77.30
2023-04-24T14:51:28.182Z,79.50
2023-04-24T14:53:55.299Z,78.10
2023-04-24T14:56:22.277Z,77.50
2023-04-24T14:58:49.316Z,78.40
2023-04-24T15:01:17.794Z,78.30
2023-04-24T15:03:45.902Z,77.20
2023-04-24T15:06:13.812Z,79.90
2023-04-24T15:08:40.993Z,79.30
2023-04-24T15:11:08.055Z,78.90
2023-04-24T15:13:35.035Z,79.60
2023-04-24T15:16:02.386Z,80.70
2023-04-24T15:18:30.605Z,80.70
2023-04-24T15:20:57.908Z,82.40
2023-04-24T15:23:24.958Z,84.20
2023-04-24T15:25:52.040Z,83.50
2023-04-24T15:28:19.140Z,82.60
2023-04-24T15:30:46.262Z,83.80
2023-04-24T15:33:13.340Z,85.00
2023-04-24T15:35:41.335Z,85.60
2023-04-24T15:38:08.502Z,86.60
2023-04-24T15:40:35.537Z,86.90
2023-04-24T15:43:02.548Z,84.60
2023-04-24T15:45:29.843Z,83.40
2023-04-24T15:47:56.957Z,82.50
2023-04-24T15:50:24.864Z,79.10
2023-04-24T15:52:51.874Z,79.90
2023-04-24T15:55:18.981Z,79.70
2023-04-24T15:57:46.245Z,79.90
2023-04-24T16:00:14.113Z,80.80
2023-04-24T16:02:41.465Z,81.30
2023-04-24T16:05:09.011Z,82.80
2023-04-24T16:07:37.772Z,84.50
2023-04-24T16:10:05.705Z,83.30
2023-04-24T16:12:32.807Z,83.80
2023-04-24T16:14:59.966Z,83.60
2023-04-24T16:17:27.089Z,83.60
2023-04-24T16:19:54.181Z,82.10
2023-04-24T16:22:21.221Z,82.50
2023-04-24T16:24:48.317Z,83.40
2023-04-24T16:27:16.090Z,83.20
2023-04-24T16:29:43.332Z,83.40
2023-04-24T16:32:11.127Z,81.30
2023-04-24T16:34:38.300Z,79.30
2023-04-24T16:37:06.661Z,81.50
2023-04-24T16:39:34.246Z,81.30
2023-04-24T16:42:01.896Z,81.20
2023-04-24T16:44:29.067Z,80.60
2023-04-24T16:46:56.182Z,80.40
2023-04-24T16:49:31.139Z,80.80
2023-04-24T16:51:58.547Z,80.80
2023-04-24T16:54:26.112Z,80.30
2023-04-24T16:56:54.206Z,78.40
2023-04-24T16:59:24.560Z,77.70
2023-04-24T17:01:51.659Z,79.20
2023-04-24T17:04:18.751Z,80.70
2023-04-24T17:06:46.028Z,82.10
2023-04-24T17:09:14.553Z,82.90
2023-04-24T17:11:42.412Z,84.00
2023-04-24T17:14:09.577Z,84.50
2023-04-24T17:16:38.327Z,85.60
2023-04-24T17:19:06.173Z,87.30
2023-04-24T17:21:33.691Z,89.10
2023-04-24T17:24:00.875Z,88.70
2023-04-24T17:26:29.236Z,90.30
2023-04-24T17:28:56.295Z,90.00
2023-04-24T17:31:23.479Z,90.60
2023-04-24T17:33:51.127Z,91.40
2023-04-24T17:36:18.590Z,92.40
2023-04-24T17:38:45.696Z,93.90
2023-04-24T17:41:15.065Z,95.90
2023-04-24T17:43:42.614Z,97.70
2023-04-24T17:46:09.816Z,99.60
2023-04-24T17:48:36.881Z,99.90
2023-04-24T17:51:03.929Z,99.90
2023-04-24T17:53:31.144Z,99.90
2023-04-24T17:56:02.775Z,99.90
2023-04-24T17:58:32.580Z,99.90
2023-04-24T18:00:59.874Z,99.90
2023-04-24T18:03:27.199Z,99.90
2023-04-24T18:05:54.402Z,99.90
2023-04-24T18:08:21.502Z,99.90
2023-04-24T18:10:48.713Z,99.90
2023-04-24T18:13:15.776Z,99.90
2023-04-24T18:15:43.740Z,99.90
2023-04-24T18:18:11.795Z,99.90
2023-04-24T18:20:39.458Z,99.90
2023-04-24T18:23:06.718Z,99.90
2023-04-24T18:25:33.736Z,99.90
2023-04-24T18:28:00.829Z,99.90
2023-04-24T18:30:28.397Z,99.90
2023-04-24T18:32:55.456Z,99.90
2023-04-24T18:35:23.396Z,99.90
2023-04-24T18:37:50.914Z,99.90
2023-04-24T18:40:18.309Z,99.90
2023-04-24T18:42:45.409Z,99.90
2023-04-24T18:45:14.888Z,99.90
2023-04-24T18:47:42.756Z,99.90
2023-04-24T18:50:10.666Z,99.90
2023-04-24T18:52:37.705Z,99.90
2023-04-24T18:55:06.753Z,99.90
2023-04-24T18:57:34.007Z,99.90
2023-04-24T19:00:01.007Z,99.90
2023-04-24T19:02:28.259Z,99.90
2023-04-24T19:04:55.440Z,99.90
2023-04-24T19:07:22.461Z,99.90
2023-04-24T19:09:49.453Z,99.90
2023-04-24T19:12:16.554Z,99.90
2023-04-24T19:14:43.525Z,99.90
2023-04-24T19:17:11.087Z,99.90
2023-04-24T19:19:38.188Z,99.90
2023-04-24T19:22:05.564Z,99.90
2023-04-24T19:24:33.678Z,99.90
2023-04-24T19:27:01.774Z,99.90
2023-04-24T19:29:28.862Z,99.90
2023-04-24T19:31:57.865Z,99.90
2023-04-24T19:34:26.204Z,99.90
2023-04-24T19:36:53.422Z,99.90
2023-04-24T19:39:20.536Z,99.90
2023-04-24T19:41:47.545Z,99.90
2023-04-24T19:44:15.782Z,99.90
2023-04-24T19:46:43.381Z,99.90
2023-04-24T19:49:10.581Z,99.90
2023-04-24T19:51:37.937Z,99.90
2023-04-24T19:54:06.424Z,99.90
2023-04-24T19:56:33.880Z,99.90
2023-04-24T19:59:01.253Z,99.90
2023-04-24T20:01:28.478Z,99.90
2023-04-24T20:03:58.699Z,99.90
2023-04-24T20:06:25.772Z,99.90
2023-04-24T20:08:52.761Z,99.90
2023-04-24T20:11:19.909Z,99.90
2023-04-24T20:13:46.943Z,99.90
2023-04-24T20:16:13.984Z,99.90
2023-04-24T20:18:41.027Z,99.90
2023-04-24T20:21:09.306Z,99.90
2023-04-24T20:23:36.429Z,99.90
2023-04-24T20:26:04.985Z,99.90
2023-04-24T20:28:32.029Z,99.90
2023-04-24T20:30:59.588Z,99.90
2023-04-24T20:33:28.222Z,99.90
2023-04-24T20:35:55.843Z,99.90
2023-04-24T20:38:23.581Z,99.90
2023-04-24T20:40:57.897Z,99.90
2023-04-24T20:43:28.910Z,99.90
2023-04-24T20:45:58.287Z,99.90
2023-04-24T20:48:26.274Z,99.90
2023-04-24T20:50:56.754Z,99.90
2023-04-24T20:53:24.116Z,99.90
2023-04-24T20:55:51.180Z,99.90
2023-04-24T20:58:24.540Z,99.90
2023-04-24T21:00:52.443Z,99.90
2023-04-24T21:03:20.119Z,99.90
2023-04-24T21:05:47.181Z,99.90
2023-04-24T21:08:14.317Z,99.90
2023-04-24T21:10:41.394Z,99.90
2023-04-24T21:13:09.097Z,99.90
2023-04-24T21:15:36.132Z,99.90
2023-04-24T21:18:04.126Z,99.90
2023-04-24T21:20:31.224Z,99.90
2023-04-24T21:22:58.267Z,99.90
2023-04-24T21:25:26.478Z,99.90
2023-04-24T21:27:53.988Z,99.90
2023-04-24T21:30:22.109Z,99.90
2023-04-24T21:32:49.253Z,99.90
2023-04-24T21:35:16.394Z,99.90
2023-04-24T21:37:43.323Z,99.90
2023-04-24T21:40:11.575Z,99.90
2023-04-24T21:42:39.444Z,99.90
2023-04-24T21:45:06.953Z,99.90
2023-04-24T21:47:33.934Z,99.90
2023-04-24T21:50:01.093Z,99.90
2023-04-24T21:52:28.130Z,99.90
2023-04-24T21:54:55.176Z,99.90
2023-04-24T21:57:22.363Z,99.90
2023-04-24T21:59:49.458Z,99.90
2023-04-24T22:02:16.508Z,99.90
2023-04-24T22:04:44.198Z,99.90
2023-04-24T22:07:11.391Z,99.90
2023-04-24T22:09:38.420Z,99.90
2023-04-24T22:12:05.745Z,99.90
2023-04-24T22:14:32.946Z,99.90
2023-04-24T22:16:59.945Z,99.90
2023-04-24T22:19:28.429Z,99.90
2023-04-24T22:21:55.543Z,99.90
2023-04-24T22:24:22.533Z,99.90
2023-04-24T22:26:49.860Z,99.90
2023-04-24T22:29:16.830Z,99.90
2023-04-24T22:31:43.784Z,99.90
2023-04-24T22:34:11.053Z,99.90
2023-04-24T22:36:38.006Z,99.90
2023-04-24T22:39:05.711Z,99.90
2023-04-24T22:41:32.754Z,99.90
2023-04-24T22:44:00.247Z,99.90
2023-04-24T22:46:27.360Z,99.90
2023-04-24T22:48:54.360Z,99.90
2023-04-24T22:51:21.556Z,99.90
2023-04-24T22:53:50.000Z,99.90
2023-04-24T22:56:17.520Z,99.90
2023-04-24T22:58:44.684Z,99.90
2023-04-24T23:01:11.893Z,99.90
2023-04-24T23:03:39.399Z,99.90
2023-04-24T23:06:06.882Z,99.90
2023-04-24T23:08:33.886Z,99.90
2023-04-24T23:11:01.077Z,99.90
2023-04-24T23:13:28.188Z,99.90
2023-04-24T23:15:55.422Z,99.90
2023-04-24T23:18:22.446Z,99.90
2023-04-24T23:20:49.623Z,99.90
2023-04-24T23:23:16.786Z,99.90
2023-04-24T23:25:43.876Z,99.90
2023-04-24T23:28:10.885Z,99.90
2023-04-24T23:30:38.061Z,99.90
2023-04-24T23:33:05.333Z,99.90
2023-04-24T23:35:32.476Z,99.90
2023-04-24T23:37:59.776Z,99.90
2023-04-24T23:40:26.892Z,99.90
2023-04-24T23:43:05.726Z,99.90
2023-04-24T23:45:34.415Z,99.90
2023-04-24T23:48:01.727Z,99.90
2023-04-24T23:50:28.900Z,99.90
2023-04-24T23:52:56.325Z,99.90
2023-04-24T23:55:23.311Z,99.90
2023-04-24T23:57:50.574Z,99.90
